createdAt,value
2022-08-08T00:00:56.013Z,14.30
2022-08-08T00:03:32.923Z,14.30
2022-08-08T00:06:49.476Z,14.30
2022-08-08T00:10:07.367Z,14.30
2022-08-08T00:14:16.405Z,14.30
2022-08-08T00:17:03.672Z,14.30
2022-08-08T00:20:14.958Z,14.30
2022-08-08T00:23:42.352Z,14.40
2022-08-08T00:26:57.190Z,14.40
2022-08-08T00:30:11.231Z,14.40
2022-08-08T00:33:25.018Z,14.40
2022-08-08T00:37:03.786Z,14.40
2022-08-08T00:41:12.008Z,14.40
2022-08-08T00:44:59.767Z,14.50
2022-08-08T00:49:01.057Z,14.50
2022-08-08T00:52:38.931Z,14.60
2022-08-08T00:56:18.742Z,14.60
2022-08-08T01:00:01.379Z,14.60
2022-08-08T01:04:00.905Z,14.60
2022-08-08T01:08:02.892Z,14.60
2022-08-08T01:11:56.683Z,14.60
2022-08-08T01:15:47.145Z,14.60
2022-08-08T01:19:51.831Z,14.60
2022-08-08T01:24:05.797Z,14.60
2022-08-08T01:27:52.966Z,14.60
2022-08-08T01:32:12.820Z,14.70
2022-08-08T01:36:01.021Z,14.60
2022-08-08T01:39:27.855Z,14.60
2022-08-08T01:42:50.510Z,14.60
2022-08-08T01:46:08.151Z,14.60
2022-08-08T01:49:37.064Z,14.70
2022-08-08T01:55:08.556Z,14.70
2022-08-08T01:56:40.175Z,14.60
2022-08-08T02:00:18.047Z,14.70
2022-08-08T02:03:57.289Z,14.70
2022-08-08T02:07:11.581Z,14.70
2022-08-08T02:10:45.900Z,14.70
2022-08-08T02:14:03.146Z,14.80
2022-08-08T02:17:24.305Z,14.90
2022-08-08T02:21:08.828Z,14.90
2022-08-08T02:24:25.786Z,15.00
2022-08-08T02:27:42.612Z,15.00
2022-08-08T02:31:43.341Z,15.00
2022-08-08T02:35:08.009Z,15.00
2022-08-08T02:39:01.351Z,15.10
2022-08-08T02:43:07.430Z,15.10
2022-08-08T02:46:38.208Z,15.10
2022-08-08T02:50:24.879Z,15.10
2022-08-08T02:53:51.892Z,15.10
2022-08-08T02:57:40.465Z,15.10
2022-08-08T03:01:54.604Z,15.10
2022-08-08T03:05:45.217Z,15.10
2022-08-08T03:09:23.867Z,15.10
2022-08-08T03:15:53.900Z,15.10
2022-08-08T03:16:48.874Z,15.10
2022-08-08T03:20:04.156Z,15.10
2022-08-08T03:23:17.652Z,15.10
2022-08-08T03:26:32.503Z,15.10
2022-08-08T03:29:57.013Z,15.10
2022-08-08T03:34:00.234Z,15.10
2022-08-08T03:36:51.967Z,15.10
2022-08-08T03:40:04.305Z,15.20
2022-08-08T03:43:18.074Z,15.20
2022-08-08T03:46:47.132Z,15.20
2022-08-08T03:50:01.917Z,15.20
2022-08-08T03:53:23.988Z,15.30
2022-08-08T03:56:49.034Z,15.20
2022-08-08T04:00:07.739Z,15.30
2022-08-08T04:03:57.035Z,15.30
2022-08-08T04:07:01.530Z,15.30
2022-08-08T04:10:16.202Z,15.30
2022-08-08T04:13:26.410Z,15.30
2022-08-08T04:16:41.400Z,15.30
2022-08-08T04:19:52.656Z,15.30
2022-08-08T04:23:03.625Z,15.40
2022-08-08T04:26:15.499Z,15.40
2022-08-08T04:29:25.299Z,15.40
2022-08-08T04:32:34.107Z,15.40
2022-08-08T04:35:51.286Z,15.40
2022-08-08T04:40:05.763Z,15.50
2022-08-08T04:42:33.947Z,15.50
2022-08-08T04:45:43.858Z,15.60
2022-08-08T04:48:55.672Z,15.60
2022-08-08T04:52:04.689Z,15.60
2022-08-08T04:55:12.912Z,15.60
2022-08-08T04:58:22.418Z,15.70
2022-08-08T05:01:35.587Z,15.70
2022-08-08T05:04:56.889Z,15.80
2022-08-08T05:08:12.629Z,15.80
2022-08-08T05:11:24.700Z,15.80
2022-08-08T05:14:39.093Z,15.90
2022-08-08T05:17:54.397Z,15.90
2022-08-08T05:21:05.630Z,16.00
2022-08-08T05:24:14.716Z,16.00
2022-08-08T05:27:33.572Z,15.90
2022-08-08T05:30:50.183Z,16.00
2022-08-08T05:34:06.505Z,16.00
2022-08-08T05:37:19.718Z,16.00
2022-08-08T05:40:31.589Z,16.10
2022-08-08T05:44:04.186Z,16.20
2022-08-08T05:47:14.922Z,16.20
2022-08-08T05:50:33.493Z,16.30
2022-08-08T05:53:56.290Z,16.40
2022-08-08T05:57:16.675Z,16.40
2022-08-08T06:00:56.853Z,16.50
2022-08-08T06:04:13.719Z,16.50
2022-08-08T06:07:34.703Z,16.60
2022-08-08T06:10:45.300Z,16.60
2022-08-08T06:13:54.938Z,16.70
2022-08-08T06:17:05.869Z,16.70
2022-08-08T06:20:33.551Z,16.60
2022-08-08T06:23:53.006Z,16.60
2022-08-08T06:27:12.585Z,16.60
2022-08-08T06:30:28.481Z,16.80
2022-08-08T06:34:27.431Z,17.10
2022-08-08T06:37:25.210Z,17.10
2022-08-08T06:40:39.100Z,17.20
2022-08-08T06:44:03.063Z,17.20
2022-08-08T06:47:15.836Z,18.10
2022-08-08T06:50:33.940Z,19.90
2022-08-08T06:53:51.233Z,20.60
2022-08-08T06:57:11.431Z,22.00
2022-08-08T07:00:30.230Z,21.00
2022-08-08T07:04:39.672Z,19.90
2022-08-08T07:07:27.806Z,20.00
2022-08-08T07:10:47.791Z,21.20
2022-08-08T07:14:05.474Z,22.20
2022-08-08T07:17:31.695Z,22.30
2022-08-08T07:20:54.472Z,23.20
2022-08-08T07:24:09.602Z,24.30
2022-08-08T07:28:02.008Z,24.80
2022-08-08T07:31:08.388Z,23.60
2022-08-08T07:34:31.331Z,22.30
2022-08-08T07:37:56.363Z,22.10
2022-08-08T07:41:58.520Z,21.60
2022-08-08T07:45:02.308Z,21.60
2022-08-08T07:48:13.207Z,22.10
2022-08-08T07:51:23.179Z,23.00
2022-08-08T07:54:41.328Z,23.30
2022-08-08T07:58:01.707Z,23.70
2022-08-08T08:01:13.824Z,24.50
2022-08-08T08:04:33.813Z,24.40
2022-08-08T08:07:53.107Z,24.20
2022-08-08T08:11:16.184Z,23.70
2022-08-08T08:14:34.827Z,23.10
2022-08-08T08:17:48.442Z,23.40
2022-08-08T08:21:13.354Z,23.60
2022-08-08T08:24:32.101Z,22.50
2022-08-08T08:27:46.670Z,22.20
2022-08-08T08:30:56.434Z,22.60
2022-08-08T08:34:08.562Z,23.20
2022-08-08T08:37:20.385Z,24.70
2022-08-08T08:40:33.110Z,25.40
2022-08-08T08:43:45.162Z,24.50
2022-08-08T08:46:58.727Z,23.80
2022-08-08T08:50:10.712Z,23.30
2022-08-08T08:53:56.550Z,23.90
2022-08-08T08:57:17.425Z,24.90
2022-08-08T09:00:39.763Z,24.20
2022-08-08T09:04:06.394Z,24.70
2022-08-08T09:07:23.881Z,25.40
2022-08-08T09:10:51.183Z,25.50
2022-08-08T09:14:01.713Z,24.40
2022-08-08T09:17:17.917Z,23.40
2022-08-08T09:21:59.251Z,23.40
2022-08-08T09:23:57.125Z,23.80
2022-08-08T09:27:20.166Z,23.40
2022-08-08T09:30:34.673Z,23.60
2022-08-08T09:34:14.597Z,24.00
2022-08-08T09:37:46.362Z,24.10
2022-08-08T09:40:57.418Z,24.20
2022-08-08T09:44:29.720Z,24.50
2022-08-08T09:48:03.046Z,24.20
2022-08-08T09:51:16.539Z,24.50
2022-08-08T09:54:37.076Z,24.20
2022-08-08T09:57:55.673Z,23.80
2022-08-08T10:01:14.321Z,23.40
2022-08-08T10:04:42.095Z,23.50
2022-08-08T10:08:00.742Z,24.20
2022-08-08T10:12:22.387Z,24.80
2022-08-08T10:14:40.077Z,25.50
2022-08-08T10:18:05.513Z,25.70
2022-08-08T10:21:25.450Z,25.60
2022-08-08T10:24:38.047Z,25.50
2022-08-08T10:27:50.598Z,25.10
2022-08-08T10:31:01.763Z,25.10
2022-08-08T10:34:18.484Z,25.00
2022-08-08T10:37:31.694Z,24.30
2022-08-08T10:40:46.378Z,24.30
2022-08-08T10:43:55.263Z,24.00
2022-08-08T10:47:11.199Z,23.70
2022-08-08T10:50:23.963Z,23.30
2022-08-08T10:53:56.811Z,22.80
2022-08-08T10:57:08.833Z,22.50
2022-08-08T11:00:22.615Z,22.90
2022-08-08T11:04:01.207Z,23.30
2022-08-08T11:07:39.198Z,23.00
2022-08-08T11:10:41.334Z,22.30
2022-08-08T11:13:52.063Z,22.20
2022-08-08T11:17:15.085Z,22.40
2022-08-08T11:20:28.085Z,22.30
2022-08-08T11:23:42.300Z,22.60
2022-08-08T11:26:56.266Z,22.80
2022-08-08T11:30:24.286Z,23.50
2022-08-08T11:33:53.174Z,23.20
2022-08-08T11:37:15.363Z,23.40
2022-08-08T11:40:26.508Z,23.70
2022-08-08T11:43:39.515Z,23.70
2022-08-08T11:46:57.742Z,23.70
2022-08-08T11:50:10.106Z,23.70
2022-08-08T11:53:24.322Z,23.20
2022-08-08T11:56:42.172Z,22.70
2022-08-08T12:00:01.328Z,22.40
2022-08-08T12:03:25.239Z,22.70
2022-08-08T12:06:39.433Z,22.80
2022-08-08T12:09:59.326Z,22.80
2022-08-08T12:13:12.217Z,23.00
2022-08-08T12:16:30.826Z,22.80
2022-08-08T12:19:51.175Z,22.60
2022-08-08T12:23:00.625Z,22.50
2022-08-08T12:26:16.892Z,22.60
2022-08-08T12:29:40.438Z,22.50
2022-08-08T12:32:50.783Z,22.20
2022-08-08T12:36:10.802Z,22.30
2022-08-08T12:40:01.335Z,22.20
2022-08-08T12:42:56.695Z,22.30
2022-08-08T12:46:19.093Z,22.40
2022-08-08T12:49:43.392Z,22.10
2022-08-08T12:52:55.738Z,22.20
2022-08-08T12:56:18.271Z,22.00
2022-08-08T12:59:44.884Z,21.90
2022-08-08T13:03:01.031Z,21.80
2022-08-08T13:06:14.566Z,21.80
2022-08-08T13:10:00.470Z,21.80
2022-08-08T13:13:08.020Z,21.80
2022-08-08T13:16:21.568Z,21.70
2022-08-08T13:19:49.879Z,21.70
2022-08-08T13:23:31.219Z,21.70
2022-08-08T13:26:34.213Z,21.40
2022-08-08T13:29:53.682Z,21.50
2022-08-08T13:33:02.401Z,21.70
2022-08-08T13:36:12.472Z,21.60
2022-08-08T13:39:23.633Z,21.60
2022-08-08T13:42:34.478Z,21.60
2022-08-08T13:45:42.801Z,21.50
2022-08-08T13:50:32.239Z,21.50
2022-08-08T13:52:37.454Z,21.60
2022-08-08T13:55:46.509Z,21.50
2022-08-08T13:58:57.309Z,21.50
2022-08-08T14:02:16.350Z,21.60
2022-08-08T14:05:34.306Z,21.40
2022-08-08T14:08:46.943Z,21.40
2022-08-08T14:11:58.936Z,21.30
2022-08-08T14:15:08.345Z,21.20
2022-08-08T14:18:35.906Z,21.30
2022-08-08T14:21:55.432Z,21.20
2022-08-08T14:25:15.448Z,21.20
2022-08-08T14:28:29.197Z,21.10
2022-08-08T14:32:12.632Z,21.10
2022-08-08T14:35:22.559Z,21.20
2022-08-08T14:38:34.485Z,21.30
2022-08-08T14:42:07.729Z,21.00
2022-08-08T14:45:18.243Z,21.00
2022-08-08T14:48:34.869Z,21.10
2022-08-08T14:51:53.076Z,21.10
2022-08-08T14:55:01.842Z,21.10
2022-08-08T14:58:16.509Z,21.00
2022-08-08T15:01:37.411Z,20.90
2022-08-08T15:04:49.181Z,21.00
2022-08-08T15:07:59.901Z,21.00
2022-08-08T15:11:11.269Z,21.00
2022-08-08T15:14:26.341Z,20.90
2022-08-08T15:17:36.519Z,21.00
2022-08-08T15:20:45.090Z,21.00
2022-08-08T15:23:53.343Z,20.70
2022-08-08T15:27:12.102Z,20.70
2022-08-08T15:30:32.392Z,20.70
2022-08-08T15:33:59.144Z,20.70
2022-08-08T15:37:08.261Z,20.70
2022-08-08T15:40:16.451Z,20.60
2022-08-08T15:43:35.781Z,20.60
2022-08-08T15:46:50.904Z,20.50
2022-08-08T15:49:59.409Z,20.30
2022-08-08T15:53:07.552Z,20.30
2022-08-08T15:56:20.053Z,20.40
2022-08-08T16:00:05.564Z,20.40
2022-08-08T16:02:59.063Z,20.40
2022-08-08T16:06:14.401Z,20.30
2022-08-08T16:13:02.009Z,20.20
2022-08-08T16:13:10.233Z,20.00
2022-08-08T16:16:22.116Z,20.00
2022-08-08T16:19:59.784Z,20.00
2022-08-08T16:23:02.644Z,20.00
2022-08-08T16:26:17.386Z,20.10
2022-08-08T16:29:37.793Z,20.00
2022-08-08T16:32:54.115Z,20.00
2022-08-08T16:36:03.658Z,20.00
2022-08-08T16:39:27.807Z,20.00
2022-08-08T16:42:43.250Z,20.20
2022-08-08T16:46:37.894Z,20.30
2022-08-08T16:49:19.589Z,20.30
2022-08-08T16:55:00.273Z,20.30
2022-08-08T16:56:00.309Z,20.30
2022-08-08T16:59:09.253Z,20.30
2022-08-08T17:02:38.203Z,20.40
2022-08-08T17:05:47.126Z,20.20
2022-08-08T17:08:56.646Z,20.20
2022-08-08T17:12:06.293Z,20.10
2022-08-08T17:15:20.521Z,20.20
2022-08-08T17:18:29.306Z,20.10
2022-08-08T17:21:41.257Z,20.00
2022-08-08T17:24:53.744Z,20.00
2022-08-08T17:28:02.354Z,19.70
2022-08-08T17:31:45.807Z,19.50
2022-08-08T17:35:14.570Z,19.30
2022-08-08T17:38:06.935Z,19.10
2022-08-08T17:41:16.677Z,18.90
2022-08-08T17:44:31.384Z,18.90
2022-08-08T17:47:40.885Z,18.80
2022-08-08T17:50:49.498Z,18.70
2022-08-08T17:53:57.995Z,18.70
2022-08-08T17:57:11.900Z,18.60
2022-08-08T18:00:30.825Z,18.60
2022-08-08T18:03:39.500Z,18.50
2022-08-08T18:06:47.706Z,18.40
2022-08-08T18:09:57.734Z,18.40
2022-08-08T18:13:09.013Z,18.30
2022-08-08T18:16:23.196Z,18.30
2022-08-08T18:19:31.977Z,18.20
2022-08-08T18:22:54.103Z,18.10
2022-08-08T18:26:04.097Z,18.10
2022-08-08T18:29:14.936Z,18.00
2022-08-08T18:32:23.680Z,18.00
2022-08-08T18:35:41.593Z,18.00
2022-08-08T18:38:50.162Z,17.90
2022-08-08T18:42:03.286Z,17.80
2022-08-08T18:45:44.816Z,17.80
2022-08-08T18:48:42.503Z,17.70
2022-08-08T18:51:54.015Z,17.60
2022-08-08T18:55:10.123Z,17.70
2022-08-08T18:58:19.638Z,17.50
2022-08-08T19:02:25.541Z,17.40
2022-08-08T19:05:01.665Z,17.40
2022-08-08T19:08:24.865Z,17.30
2022-08-08T19:11:38.020Z,17.10
2022-08-08T19:14:55.149Z,17.10
2022-08-08T19:18:33.168Z,17.20
2022-08-08T19:21:49.404Z,17.10
2022-08-08T19:25:19.315Z,17.10
2022-08-08T19:28:26.789Z,17.00
2022-08-08T19:31:36.026Z,16.90
2022-08-08T19:34:47.781Z,16.90
2022-08-08T19:37:57.882Z,16.80
2022-08-08T19:41:07.575Z,16.70
2022-08-08T19:44:43.061Z,16.50
2022-08-08T19:47:46.526Z,16.50
2022-08-08T19:50:57.617Z,16.50
2022-08-08T19:54:07.853Z,16.60
2022-08-08T19:57:16.133Z,16.40
2022-08-08T20:00:30.467Z,16.30
2022-08-08T20:04:00.879Z,16.30
2022-08-08T20:08:28.021Z,16.30
2022-08-08T20:10:39.565Z,16.20
2022-08-08T20:14:31.275Z,16.20
2022-08-08T20:17:26.879Z,16.20
2022-08-08T20:20:37.906Z,16.00
2022-08-08T20:23:52.396Z,16.00
2022-08-08T20:27:06.054Z,16.10
2022-08-08T20:30:52.780Z,16.00
2022-08-08T20:34:27.261Z,16.00
2022-08-08T20:37:24.318Z,15.90
2022-08-08T20:40:53.940Z,15.90
2022-08-08T20:44:02.632Z,16.00
2022-08-08T20:47:23.839Z,15.90
2022-08-08T20:50:34.593Z,15.90
2022-08-08T20:53:59.012Z,15.80
2022-08-08T20:57:18.597Z,15.80
2022-08-08T21:00:27.697Z,15.80
2022-08-08T21:03:55.861Z,15.80
2022-08-08T21:07:08.047Z,15.90
2022-08-08T21:10:17.443Z,15.80
2022-08-08T21:13:39.993Z,15.70
2022-08-08T21:16:49.567Z,15.70
2022-08-08T21:19:59.037Z,15.70
2022-08-08T21:23:09.483Z,15.60
2022-08-08T21:26:27.329Z,15.50
2022-08-08T21:30:05.823Z,15.40
2022-08-08T21:33:10.818Z,15.30
2022-08-08T21:36:28.768Z,15.20
2022-08-08T21:39:54.824Z,15.20
2022-08-08T21:43:07.503Z,15.10
2022-08-08T21:48:08.148Z,15.00
2022-08-08T21:49:45.209Z,14.90
2022-08-08T21:54:30.979Z,14.90
2022-08-08T21:56:32.303Z,14.80
2022-08-08T22:00:02.754Z,14.90
2022-08-08T22:03:23.202Z,14.90
2022-08-08T22:06:32.190Z,14.90
2022-08-08T22:09:43.741Z,14.90
2022-08-08T22:12:53.407Z,14.80
2022-08-08T22:16:03.756Z,14.70
2022-08-08T22:19:16.475Z,14.70
2022-08-08T22:22:29.211Z,14.70
2022-08-08T22:26:19.972Z,14.70
2022-08-08T22:29:57.044Z,14.60
2022-08-08T22:32:36.303Z,14.60
2022-08-08T22:36:04.384Z,14.50
2022-08-08T22:39:39.354Z,14.40
2022-08-08T22:42:52.765Z,14.50
2022-08-08T22:46:02.447Z,14.50
2022-08-08T22:49:11.442Z,14.50
2022-08-08T22:52:33.750Z,14.40
2022-08-08T22:55:58.134Z,14.40
2022-08-08T22:59:11.756Z,14.30
2022-08-08T23:02:20.263Z,14.30
2022-08-08T23:05:30.463Z,14.20
2022-08-08T23:08:55.612Z,14.10
2022-08-08T23:12:28.790Z,14.10
2022-08-08T23:16:37.758Z,14.10
2022-08-08T23:19:03.347Z,14.10
2022-08-08T23:22:12.120Z,14.10
2022-08-08T23:25:21.697Z,14.00
2022-08-08T23:28:30.613Z,14.00
2022-08-08T23:31:41.588Z,13.90
2022-08-08T23:34:59.000Z,13.80
2022-08-08T23:38:07.838Z,13.80
2022-08-08T23:41:24.716Z,13.70
2022-08-08T23:44:33.910Z,13.80
2022-08-08T23:49:04.327Z,13.80
2022-08-08T23:52:04.093Z,13.80
2022-08-08T23:54:53.410Z,13.60
2022-08-08T23:58:37.319Z,13.50
